sensor_id;sensor_type;location;lat;lon;timestamp;P1;durP1;ratioP1;P2;durP2;ratioP2
12059;SDS011;6091;51.432;6.880;2023-08-17T00:01:59;1.90;;;1.00;;
12059;SDS011;6091;51.432;6.880;2023-08-17T00:04:26;1.45;;;1.17;;
12059;SDS011;6091;51.432;6.880;2023-08-17T00:06:53;1.80;;;1.00;;
12059;SDS011;6091;51.432;6.880;2023-08-17T00:09:20;1.67;;;1.17;;
12059;SDS011;6091;51.432;6.880;2023-08-17T00:11:48;1.55;;;1.30;;
12059;SDS011;6091;51.432;6.880;2023-08-17T00:14:15;1.30;;;1.20;;
12059;SDS011;6091;51.432;6.880;2023-08-17T00:16:42;1.23;;;1.13;;
12059;SDS011;6091;51.432;6.880;2023-08-17T00:19:09;1.55;;;1.10;;
12059;SDS011;6091;51.432;6.880;2023-08-17T00:21:36;1.48;;;1.20;;
12059;SDS011;6091;51.432;6.880;2023-08-17T00:24:04;1.25;;;1.15;;
12059;SDS011;6091;51.432;6.880;2023-08-17T00:26:31;1.40;;;1.27;;
12059;SDS011;6091;51.432;6.880;2023-08-17T00:28:58;1.38;;;1.27;;
12059;SDS011;6091;51.432;6.880;2023-08-17T00:31:25;1.40;;;1.30;;
12059;SDS011;6091;51.432;6.880;2023-08-17T00:33:52;1.88;;;1.33;;
12059;SDS011;6091;51.432;6.880;2023-08-17T00:36:22;1.55;;;1.27;;
12059;SDS011;6091;51.432;6.880;2023-08-17T00:38:49;1.73;;;1.13;;
12059;SDS011;6091;51.432;6.880;2023-08-17T00:41:16;1.30;;;1.20;;
12059;SDS011;6091;51.432;6.880;2023-08-17T00:43:43;1.35;;;1.25;;
12059;SDS011;6091;51.432;6.880;2023-08-17T00:46:11;1.60;;;1.20;;
12059;SDS011;6091;51.432;6.880;2023-08-17T00:48:39;0.95;;;0.95;;
12059;SDS011;6091;51.432;6.880;2023-08-17T00:51:07;1.10;;;1.00;;
12059;SDS011;6091;51.432;6.880;2023-08-17T00:53:34;1.10;;;1.00;;
12059;SDS011;6091;51.432;6.880;2023-08-17T00:56:02;1.05;;;1.00;;
12059;SDS011;6091;51.432;6.880;2023-08-17T00:58:30;1.25;;;1.15;;
12059;SDS011;6091;51.432;6.880;2023-08-17T01:00:58;1.15;;;1.00;;
12059;SDS011;6091;51.432;6.880;2023-08-17T01:03:27;1.60;;;1.40;;
12059;SDS011;6091;51.432;6.880;2023-08-17T01:05:58;0.90;;;0.90;;
12059;SDS011;6091;51.432;6.880;2023-08-17T01:08:25;1.08;;;1.08;;
12059;SDS011;6091;51.432;6.880;2023-08-17T01:10:55;1.25;;;1.15;;
12059;SDS011;6091;51.432;6.880;2023-08-17T01:14:05;1.25;;;1.10;;
12059;SDS011;6091;51.432;6.880;2023-08-17T01:17:19;1.05;;;1.05;;
12059;SDS011;6091;51.432;6.880;2023-08-17T01:19:55;1.10;;;1.00;;
12059;SDS011;6091;51.432;6.880;2023-08-17T01:22:25;1.20;;;1.00;;
12059;SDS011;6091;51.432;6.880;2023-08-17T01:24:56;1.13;;;1.02;;
12059;SDS011;6091;51.432;6.880;2023-08-17T01:27:23;1.42;;;1.17;;
12059;SDS011;6091;51.432;6.880;2023-08-17T01:29:52;1.20;;;1.10;;
12059;SDS011;6091;51.432;6.880;2023-08-17T01:32:26;1.00;;;1.00;;
12059;SDS011;6091;51.432;6.880;2023-08-17T01:35:09;2.25;;;1.10;;
12059;SDS011;6091;51.432;6.880;2023-08-17T01:37:45;1.52;;;1.02;;
12059;SDS011;6091;51.432;6.880;2023-08-17T01:40:16;1.10;;;1.00;;
12059;SDS011;6091;51.432;6.880;2023-08-17T01:42:45;0.90;;;0.90;;
12059;SDS011;6091;51.432;6.880;2023-08-17T01:45:14;1.30;;;1.15;;
12059;SDS011;6091;51.432;6.880;2023-08-17T01:47:43;1.23;;;1.10;;
12059;SDS011;6091;51.432;6.880;2023-08-17T01:50:10;1.27;;;1.17;;
12059;SDS011;6091;51.432;6.880;2023-08-17T01:52:37;1.40;;;1.30;;
12059;SDS011;6091;51.432;6.880;2023-08-17T01:55:08;1.48;;;1.10;;
12059;SDS011;6091;51.432;6.880;2023-08-17T01:57:37;1.25;;;1.08;;
12059;SDS011;6091;51.432;6.880;2023-08-17T02:00:08;1.42;;;1.13;;
12059;SDS011;6091;51.432;6.880;2023-08-17T02:02:37;2.65;;;0.93;;
12059;SDS011;6091;51.432;6.880;2023-08-17T02:05:04;1.30;;;1.10;;
12059;SDS011;6091;51.432;6.880;2023-08-17T02:07:32;1.30;;;1.20;;
12059;SDS011;6091;51.432;6.880;2023-08-17T02:09:59;1.55;;;1.45;;
12059;SDS011;6091;51.432;6.880;2023-08-17T02:12:26;1.00;;;0.98;;
12059;SDS011;6091;51.432;6.880;2023-08-17T02:14:53;1.35;;;1.25;;
12059;SDS011;6091;51.432;6.880;2023-08-17T02:17:20;1.52;;;1.35;;
12059;SDS011;6091;51.432;6.880;2023-08-17T02:19:49;2.25;;;1.20;;
12059;SDS011;6091;51.432;6.880;2023-08-17T02:22:16;1.35;;;1.00;;
12059;SDS011;6091;51.432;6.880;2023-08-17T02:24:43;2.20;;;1.10;;
12059;SDS011;6091;51.432;6.880;2023-08-17T02:27:12;1.33;;;1.13;;
12059;SDS011;6091;51.432;6.880;2023-08-17T02:29:39;1.40;;;1.30;;
12059;SDS011;6091;51.432;6.880;2023-08-17T02:32:06;1.42;;;1.20;;
12059;SDS011;6091;51.432;6.880;2023-08-17T02:34:34;1.23;;;1.13;;
12059;SDS011;6091;51.432;6.880;2023-08-17T02:37:01;1.15;;;1.05;;
12059;SDS011;6091;51.432;6.880;2023-08-17T02:39:28;1.40;;;1.30;;
12059;SDS011;6091;51.432;6.880;2023-08-17T02:41:56;1.10;;;1.10;;
12059;SDS011;6091;51.432;6.880;2023-08-17T02:44:23;2.08;;;1.10;;
12059;SDS011;6091;51.432;6.880;2023-08-17T02:46:50;1.52;;;1.27;;
12059;SDS011;6091;51.432;6.880;2023-08-17T02:49:17;1.55;;;1.38;;
12059;SDS011;6091;51.432;6.880;2023-08-17T02:51:45;1.15;;;1.08;;
12059;SDS011;6091;51.432;6.880;2023-08-17T02:54:12;1.42;;;1.30;;
12059;SDS011;6091;51.432;6.880;2023-08-17T02:56:39;1.80;;;1.30;;
12059;SDS011;6091;51.432;6.880;2023-08-17T02:59:06;2.10;;;1.20;;
12059;SDS011;6091;51.432;6.880;2023-08-17T03:01:33;2.42;;;1.60;;
12059;SDS011;6091;51.432;6.880;2023-08-17T03:04:00;1.77;;;1.25;;
12059;SDS011;6091;51.432;6.880;2023-08-17T03:06:27;1.20;;;1.10;;
12059;SDS011;6091;51.432;6.880;2023-08-17T03:08:54;1.50;;;1.15;;
12059;SDS011;6091;51.432;6.880;2023-08-17T03:11:21;1.40;;;1.30;;
12059;SDS011;6091;51.432;6.880;2023-08-17T03:13:48;1.20;;;1.10;;
12059;SDS011;6091;51.432;6.880;2023-08-17T03:16:15;1.30;;;1.00;;
12059;SDS011;6091;51.432;6.880;2023-08-17T03:18:43;1.33;;;1.23;;
12059;SDS011;6091;51.432;6.880;2023-08-17T03:21:11;1.20;;;1.10;;
12059;SDS011;6091;51.432;6.880;2023-08-17T03:23:38;1.20;;;1.10;;
12059;SDS011;6091;51.432;6.880;2023-08-17T03:26:06;2.10;;;1.15;;
12059;SDS011;6091;51.432;6.880;2023-08-17T03:28:33;1.80;;;1.30;;
12059;SDS011;6091;51.432;6.880;2023-08-17T03:31:02;2.78;;;1.35;;
12059;SDS011;6091;51.432;6.880;2023-08-17T03:33:29;1.48;;;1.33;;
12059;SDS011;6091;51.432;6.880;2023-08-17T03:35:56;2.97;;;1.20;;
12059;SDS011;6091;51.432;6.880;2023-08-17T03:38:23;1.20;;;1.10;;
12059;SDS011;6091;51.432;6.880;2023-08-17T03:40:50;1.20;;;1.08;;
12059;SDS011;6091;51.432;6.880;2023-08-17T03:43:18;1.40;;;1.30;;
12059;SDS011;6091;51.432;6.880;2023-08-17T03:45:46;1.35;;;1.23;;
12059;SDS011;6091;51.432;6.880;2023-08-17T03:48:13;1.63;;;1.10;;
12059;SDS011;6091;51.432;6.880;2023-08-17T03:50:40;1.75;;;1.10;;
12059;SDS011;6091;51.432;6.880;2023-08-17T03:53:07;1.38;;;1.20;;
12059;SDS011;6091;51.432;6.880;2023-08-17T03:55:34;1.80;;;1.50;;
12059;SDS011;6091;51.432;6.880;2023-08-17T03:58:01;1.48;;;1.38;;
12059;SDS011;6091;51.432;6.880;2023-08-17T04:00:28;1.50;;;1.27;;
12059;SDS011;6091;51.432;6.880;2023-08-17T04:02:56;1.23;;;1.13;;
12059;SDS011;6091;51.432;6.880;2023-08-17T04:05:23;1.20;;;1.10;;
12059;SDS011;6091;51.432;6.880;2023-08-17T04:07:50;1.85;;;1.40;;
12059;SDS011;6091;51.432;6.880;2023-08-17T04:10:18;1.13;;;1.00;;
12059;SDS011;6091;51.432;6.880;2023-08-17T04:12:45;1.10;;;1.00;;
12059;SDS011;6091;51.432;6.880;2023-08-17T04:15:12;2.42;;;1.20;;
12059;SDS011;6091;51.432;6.880;2023-08-17T04:17:40;1.25;;;1.10;;
12059;SDS011;6091;51.432;6.880;2023-08-17T04:20:07;1.50;;;1.40;;
12059;SDS011;6091;51.432;6.880;2023-08-17T04:22:36;1.33;;;1.15;;
12059;SDS011;6091;51.432;6.880;2023-08-17T04:25:03;1.08;;;0.98;;
12059;SDS011;6091;51.432;6.880;2023-08-17T04:27:30;2.03;;;1.40;;
12059;SDS011;6091;51.432;6.880;2023-08-17T04:29:57;1.45;;;1.05;;
12059;SDS011;6091;51.432;6.880;2023-08-17T04:32:24;1.20;;;1.10;;
12059;SDS011;6091;51.432;6.880;2023-08-17T04:34:52;1.17;;;1.08;;
12059;SDS011;6091;51.432;6.880;2023-08-17T04:37:20;1.30;;;1.20;;
12059;SDS011;6091;51.432;6.880;2023-08-17T04:39:47;1.63;;;1.15;;
12059;SDS011;6091;51.432;6.880;2023-08-17T04:42:15;1.30;;;1.20;;
12059;SDS011;6091;51.432;6.880;2023-08-17T04:44:42;1.23;;;1.10;;
12059;SDS011;6091;51.432;6.880;2023-08-17T04:47:10;1.92;;;1.27;;
12059;SDS011;6091;51.432;6.880;2023-08-17T04:49:37;1.30;;;1.20;;
12059;SDS011;6091;51.432;6.880;2023-08-17T04:52:04;1.65;;;1.50;;
12059;SDS011;6091;51.432;6.880;2023-08-17T04:54:32;1.00;;;0.95;;
12059;SDS011;6091;51.432;6.880;2023-08-17T04:56:59;1.13;;;1.02;;
12059;SDS011;6091;51.432;6.880;2023-08-17T04:59:26;1.20;;;1.10;;
12059;SDS011;6091;51.432;6.880;2023-08-17T05:01:53;1.15;;;1.05;;
12059;SDS011;6091;51.432;6.880;2023-08-17T05:04:20;1.25;;;1.15;;
12059;SDS011;6091;51.432;6.880;2023-08-17T05:06:47;2.25;;;1.60;;
12059;SDS011;6091;51.432;6.880;2023-08-17T05:09:15;1.48;;;1.38;;
12059;SDS011;6091;51.432;6.880;2023-08-17T05:11:42;1.65;;;1.52;;
12059;SDS011;6091;51.432;6.880;2023-08-17T05:14:09;1.48;;;1.35;;
12059;SDS011;6091;51.432;6.880;2023-08-17T05:16:36;2.25;;;1.35;;
12059;SDS011;6091;51.432;6.880;2023-08-17T05:19:04;2.65;;;1.40;;
12059;SDS011;6091;51.432;6.880;2023-08-17T05:21:31;1.85;;;1.40;;
12059;SDS011;6091;51.432;6.880;2023-08-17T05:23:58;1.83;;;1.40;;
12059;SDS011;6091;51.432;6.880;2023-08-17T05:26:25;2.75;;;1.80;;
12059;SDS011;6091;51.432;6.880;2023-08-17T05:28:52;1.70;;;1.60;;
12059;SDS011;6091;51.432;6.880;2023-08-17T05:31:19;1.75;;;1.30;;
12059;SDS011;6091;51.432;6.880;2023-08-17T05:33:46;1.98;;;1.55;;
12059;SDS011;6091;51.432;6.880;2023-08-17T05:36:14;2.67;;;1.55;;
12059;SDS011;6091;51.432;6.880;2023-08-17T05:38:41;2.40;;;1.40;;
12059;SDS011;6091;51.432;6.880;2023-08-17T05:41:08;2.78;;;1.42;;
12059;SDS011;6091;51.432;6.880;2023-08-17T05:43:36;2.20;;;1.35;;
12059;SDS011;6091;51.432;6.880;2023-08-17T05:46:03;2.00;;;1.35;;
12059;SDS011;6091;51.432;6.880;2023-08-17T05:48:32;1.45;;;1.27;;
12059;SDS011;6091;51.432;6.880;2023-08-17T05:50:59;1.88;;;1.17;;
12059;SDS011;6091;51.432;6.880;2023-08-17T05:53:26;2.03;;;1.42;;
12059;SDS011;6091;51.432;6.880;2023-08-17T05:55:54;2.83;;;1.70;;
12059;SDS011;6091;51.432;6.880;2023-08-17T05:58:21;4.07;;;1.40;;
12059;SDS011;6091;51.432;6.880;2023-08-17T06:00:48;2.17;;;1.50;;
12059;SDS011;6091;51.432;6.880;2023-08-17T06:03:16;4.32;;;1.55;;
12059;SDS011;6091;51.432;6.880;2023-08-17T06:05:43;3.40;;;1.90;;
12059;SDS011;6091;51.432;6.880;2023-08-17T06:08:10;2.67;;;1.67;;
12059;SDS011;6091;51.432;6.880;2023-08-17T06:10:37;4.35;;;2.30;;
12059;SDS011;6091;51.432;6.880;2023-08-17T06:13:05;2.28;;;1.90;;
12059;SDS011;6091;51.432;6.880;2023-08-17T06:15:32;3.42;;;2.30;;
12059;SDS011;6091;51.432;6.880;2023-08-17T06:17:59;4.35;;;2.25;;
12059;SDS011;6091;51.432;6.880;2023-08-17T06:20:27;3.53;;;1.90;;
12059;SDS011;6091;51.432;6.880;2023-08-17T06:22:54;2.35;;;2.10;;
12059;SDS011;6091;51.432;6.880;2023-08-17T06:25:21;2.78;;;1.88;;
12059;SDS011;6091;51.432;6.880;2023-08-17T06:27:49;1.90;;;1.80;;
12059;SDS011;6091;51.432;6.880;2023-08-17T06:30:16;4.38;;;2.13;;
12059;SDS011;6091;51.432;6.880;2023-08-17T06:32:44;4.75;;;2.17;;
12059;SDS011;6091;51.432;6.880;2023-08-17T06:35:11;3.08;;;2.13;;
12059;SDS011;6091;51.432;6.880;2023-08-17T06:37:38;2.65;;;1.80;;
12059;SDS011;6091;51.432;6.880;2023-08-17T06:40:05;4.40;;;2.25;;
12059;SDS011;6091;51.432;6.880;2023-08-17T06:42:38;3.17;;;1.70;;
12059;SDS011;6091;51.432;6.880;2023-08-17T06:45:05;2.20;;;2.00;;
12059;SDS011;6091;51.432;6.880;2023-08-17T06:47:36;2.17;;;1.92;;
12059;SDS011;6091;51.432;6.880;2023-08-17T06:50:12;3.88;;;2.38;;
12059;SDS011;6091;51.432;6.880;2023-08-17T06:52:39;3.33;;;2.45;;
12059;SDS011;6091;51.432;6.880;2023-08-17T06:55:07;3.55;;;2.00;;
12059;SDS011;6091;51.432;6.880;2023-08-17T06:57:34;3.80;;;2.00;;
12059;SDS011;6091;51.432;6.880;2023-08-17T07:00:02;4.82;;;2.47;;
12059;SDS011;6091;51.432;6.880;2023-08-17T07:02:34;4.30;;;2.60;;
12059;SDS011;6091;51.432;6.880;2023-08-17T07:05:18;5.43;;;2.08;;
12059;SDS011;6091;51.432;6.880;2023-08-17T07:07:45;4.22;;;2.00;;
12059;SDS011;6091;51.432;6.880;2023-08-17T07:10:12;4.32;;;2.10;;
12059;SDS011;6091;51.432;6.880;2023-08-17T07:12:40;4.70;;;2.08;;
12059;SDS011;6091;51.432;6.880;2023-08-17T07:15:07;4.25;;;2.22;;
12059;SDS011;6091;51.432;6.880;2023-08-17T07:17:35;2.30;;;1.95;;
12059;SDS011;6091;51.432;6.880;2023-08-17T07:20:06;4.35;;;2.33;;
12059;SDS011;6091;51.432;6.880;2023-08-17T07:22:37;3.63;;;2.40;;
12059;SDS011;6091;51.432;6.880;2023-08-17T07:25:04;2.40;;;2.03;;
12059;SDS011;6091;51.432;6.880;2023-08-17T07:27:31;9.25;;;2.35;;
12059;SDS011;6091;51.432;6.880;2023-08-17T07:29:58;2.47;;;2.28;;
12059;SDS011;6091;51.432;6.880;2023-08-17T07:32:27;3.55;;;2.40;;
12059;SDS011;6091;51.432;6.880;2023-08-17T07:34:54;3.13;;;2.60;;
12059;SDS011;6091;51.432;6.880;2023-08-17T07:37:21;3.80;;;2.65;;
12059;SDS011;6091;51.432;6.880;2023-08-17T07:39:49;2.85;;;2.60;;
12059;SDS011;6091;51.432;6.880;2023-08-17T07:42:16;4.20;;;2.80;;
12059;SDS011;6091;51.432;6.880;2023-08-17T07:44:44;4.10;;;2.63;;
12059;SDS011;6091;51.432;6.880;2023-08-17T07:47:11;3.60;;;2.78;;
12059;SDS011;6091;51.432;6.880;2023-08-17T07:49:38;4.35;;;2.72;;
12059;SDS011;6091;51.432;6.880;2023-08-17T07:52:05;3.40;;;2.63;;
12059;SDS011;6091;51.432;6.880;2023-08-17T07:54:32;2.88;;;2.45;;
12059;SDS011;6091;51.432;6.880;2023-08-17T07:57:00;4.50;;;2.75;;
12059;SDS011;6091;51.432;6.880;2023-08-17T07:59:29;5.22;;;3.17;;
12059;SDS011;6091;51.432;6.880;2023-08-17T08:01:56;4.78;;;3.38;;
12059;SDS011;6091;51.432;6.880;2023-08-17T08:04:23;4.20;;;3.00;;
12059;SDS011;6091;51.432;6.880;2023-08-17T08:06:50;4.10;;;3.17;;
12059;SDS011;6091;51.432;6.880;2023-08-17T08:09:18;3.42;;;3.08;;
12059;SDS011;6091;51.432;6.880;2023-08-17T08:11:45;4.40;;;3.38;;
12059;SDS011;6091;51.432;6.880;2023-08-17T08:14:12;3.67;;;3.38;;
12059;SDS011;6091;51.432;6.880;2023-08-17T08:16:39;3.70;;;3.40;;
12059;SDS011;6091;51.432;6.880;2023-08-17T08:19:06;3.63;;;3.17;;
12059;SDS011;6091;51.432;6.880;2023-08-17T08:21:33;5.45;;;2.97;;
12059;SDS011;6091;51.432;6.880;2023-08-17T08:24:00;5.10;;;3.97;;
12059;SDS011;6091;51.432;6.880;2023-08-17T08:26:27;4.60;;;3.40;;
12059;SDS011;6091;51.432;6.880;2023-08-17T08:28:55;3.83;;;3.08;;
12059;SDS011;6091;51.432;6.880;2023-08-17T08:31:22;5.40;;;4.05;;
12059;SDS011;6091;51.432;6.880;2023-08-17T08:33:49;5.65;;;4.32;;
12059;SDS011;6091;51.432;6.880;2023-08-17T08:36:19;5.43;;;3.78;;
12059;SDS011;6091;51.432;6.880;2023-08-17T08:38:46;5.15;;;3.75;;
12059;SDS011;6091;51.432;6.880;2023-08-17T08:41:13;5.68;;;3.80;;
12059;SDS011;6091;51.432;6.880;2023-08-17T08:43:40;6.32;;;3.85;;
12059;SDS011;6091;51.432;6.880;2023-08-17T08:46:07;5.05;;;3.42;;
12059;SDS011;6091;51.432;6.880;2023-08-17T08:48:36;6.70;;;2.90;;
12059;SDS011;6091;51.432;6.880;2023-08-17T08:51:07;3.53;;;2.67;;
12059;SDS011;6091;51.432;6.880;2023-08-17T08:53:44;3.58;;;3.20;;
12059;SDS011;6091;51.432;6.880;2023-08-17T08:56:13;4.43;;;2.80;;
12059;SDS011;6091;51.432;6.880;2023-08-17T08:58:47;4.28;;;3.25;;
12059;SDS011;6091;51.432;6.880;2023-08-17T09:01:19;4.35;;;3.50;;
12059;SDS011;6091;51.432;6.880;2023-08-17T09:03:48;4.57;;;2.97;;
12059;SDS011;6091;51.432;6.880;2023-08-17T09:06:17;4.38;;;2.92;;
12059;SDS011;6091;51.432;6.880;2023-08-17T09:08:48;3.90;;;2.97;;
12059;SDS011;6091;51.432;6.880;2023-08-17T09:11:17;3.60;;;2.88;;
12059;SDS011;6091;51.432;6.880;2023-08-17T09:13:44;3.38;;;3.03;;
12059;SDS011;6091;51.432;6.880;2023-08-17T09:16:11;3.72;;;3.30;;
12059;SDS011;6091;51.432;6.880;2023-08-17T09:18:38;4.15;;;3.17;;
12059;SDS011;6091;51.432;6.880;2023-08-17T09:21:06;5.20;;;3.20;;
12059;SDS011;6091;51.432;6.880;2023-08-17T09:23:33;3.78;;;3.15;;
12059;SDS011;6091;51.432;6.880;2023-08-17T09:26:05;3.58;;;3.25;;
12059;SDS011;6091;51.432;6.880;2023-08-17T09:28:38;4.20;;;3.53;;
12059;SDS011;6091;51.432;6.880;2023-08-17T09:31:06;3.55;;;3.08;;
12059;SDS011;6091;51.432;6.880;2023-08-17T09:33:34;3.83;;;3.20;;
12059;SDS011;6091;51.432;6.880;2023-08-17T09:36:03;3.70;;;3.25;;
12059;SDS011;6091;51.432;6.880;2023-08-17T09:38:30;4.32;;;3.55;;
12059;SDS011;6091;51.432;6.880;2023-08-17T09:40:58;4.25;;;3.40;;
12059;SDS011;6091;51.432;6.880;2023-08-17T09:43:25;3.85;;;3.35;;
12059;SDS011;6091;51.432;6.880;2023-08-17T09:45:57;5.40;;;4.07;;
12059;SDS011;6091;51.432;6.880;2023-08-17T09:48:25;4.65;;;3.42;;
12059;SDS011;6091;51.432;6.880;2023-08-17T09:50:58;3.88;;;3.45;;
12059;SDS011;6091;51.432;6.880;2023-08-17T09:53:27;3.22;;;2.88;;
12059;SDS011;6091;51.432;6.880;2023-08-17T09:55:55;6.07;;;4.88;;
12059;SDS011;6091;51.432;6.880;2023-08-17T09:58:25;4.25;;;3.90;;
12059;SDS011;6091;51.432;6.880;2023-08-17T10:00:56;3.42;;;3.13;;
12059;SDS011;6091;51.432;6.880;2023-08-17T10:03:26;3.67;;;3.38;;
12059;SDS011;6091;51.432;6.880;2023-08-17T10:05:58;3.72;;;3.38;;
12059;SDS011;6091;51.432;6.880;2023-08-17T10:08:38;4.18;;;3.35;;
12059;SDS011;6091;51.432;6.880;2023-08-17T10:11:10;4.45;;;3.10;;
12059;SDS011;6091;51.432;6.880;2023-08-17T10:13:54;3.90;;;3.60;;
12059;SDS011;6091;51.432;6.880;2023-08-17T10:16:46;5.07;;;3.88;;
12059;SDS011;6091;51.432;6.880;2023-08-17T10:22:19;3.95;;;3.55;;
12059;SDS011;6091;51.432;6.880;2023-08-17T10:25:02;6.18;;;3.25;;
12059;SDS011;6091;51.432;6.880;2023-08-17T10:27:33;6.25;;;3.70;;
12059;SDS011;6091;51.432;6.880;2023-08-17T10:30:04;4.38;;;3.50;;
12059;SDS011;6091;51.432;6.880;2023-08-17T10:32:34;5.00;;;3.22;;
12059;SDS011;6091;51.432;6.880;2023-08-17T10:35:02;3.83;;;3.10;;
12059;SDS011;6091;51.432;6.880;2023-08-17T10:37:31;3.47;;;3.17;;
12059;SDS011;6091;51.432;6.880;2023-08-17T10:39:59;3.78;;;3.35;;
12059;SDS011;6091;51.432;6.880;2023-08-17T10:42:30;3.60;;;3.20;;
12059;SDS011;6091;51.432;6.880;2023-08-17T10:50:32;3.85;;;3.20;;
12059;SDS011;6091;51.432;6.880;2023-08-17T10:53:09;3.88;;;3.22;;
12059;SDS011;6091;51.432;6.880;2023-08-17T10:55:45;4.20;;;3.47;;
12059;SDS011;6091;51.432;6.880;2023-08-17T10:58:18;3.85;;;3.13;;
12059;SDS011;6091;51.432;6.880;2023-08-17T11:00:45;4.63;;;3.80;;
12059;SDS011;6091;51.432;6.880;2023-08-17T11:03:19;3.85;;;3.42;;
12059;SDS011;6091;51.432;6.880;2023-08-17T11:05:55;3.70;;;3.40;;
12059;SDS011;6091;51.432;6.880;2023-08-17T11:11:11;3.95;;;3.15;;
12059;SDS011;6091;51.432;6.880;2023-08-17T11:13:44;3.88;;;3.13;;
12059;SDS011;6091;51.432;6.880;2023-08-17T11:16:13;4.28;;;3.60;;
12059;SDS011;6091;51.432;6.880;2023-08-17T11:18:45;3.85;;;3.17;;
12059;SDS011;6091;51.432;6.880;2023-08-17T11:21:15;3.38;;;3.08;;
12059;SDS011;6091;51.432;6.880;2023-08-17T11:23:45;3.63;;;3.33;;
12059;SDS011;6091;51.432;6.880;2023-08-17T11:26:16;3.60;;;3.30;;
12059;SDS011;6091;51.432;6.880;2023-08-17T11:28:45;4.57;;;3.60;;
12059;SDS011;6091;51.432;6.880;2023-08-17T11:31:13;4.28;;;3.88;;
12059;SDS011;6091;51.432;6.880;2023-08-17T11:33:42;5.07;;;4.38;;
12059;SDS011;6091;51.432;6.880;2023-08-17T11:36:11;4.00;;;3.45;;
12059;SDS011;6091;51.432;6.880;2023-08-17T11:38:39;4.30;;;3.92;;
12059;SDS011;6091;51.432;6.880;2023-08-17T11:41:08;4.35;;;3.90;;
12059;SDS011;6091;51.432;6.880;2023-08-17T11:43:43;5.28;;;4.78;;
12059;SDS011;6091;51.432;6.880;2023-08-17T11:46:12;4.70;;;4.20;;
12059;SDS011;6091;51.432;6.880;2023-08-17T11:48:39;5.63;;;5.13;;
12059;SDS011;6091;51.432;6.880;2023-08-17T11:51:07;4.50;;;4.10;;
12059;SDS011;6091;51.432;6.880;2023-08-17T11:53:37;4.15;;;3.78;;
12059;SDS011;6091;51.432;6.880;2023-08-17T11:56:06;4.80;;;4.40;;
12059;SDS011;6091;51.432;6.880;2023-08-17T11:58:43;4.75;;;4.35;;
12059;SDS011;6091;51.432;6.880;2023-08-17T12:01:13;5.15;;;4.65;;
12059;SDS011;6091;51.432;6.880;2023-08-17T12:03:43;5.07;;;4.68;;
12059;SDS011;6091;51.432;6.880;2023-08-17T12:06:11;5.88;;;5.32;;
12059;SDS011;6091;51.432;6.880;2023-08-17T12:08:49;8.23;;;7.43;;
12059;SDS011;6091;51.432;6.880;2023-08-17T12:11:16;7.10;;;6.50;;
12059;SDS011;6091;51.432;6.880;2023-08-17T12:13:49;6.32;;;5.72;;
12059;SDS011;6091;51.432;6.880;2023-08-17T12:16:20;6.93;;;6.10;;
12059;SDS011;6091;51.432;6.880;2023-08-17T12:18:50;7.97;;;7.00;;
12059;SDS011;6091;51.432;6.880;2023-08-17T12:21:20;6.70;;;6.10;;
12059;SDS011;6091;51.432;6.880;2023-08-17T12:23:50;7.20;;;6.50;;
12059;SDS011;6091;51.432;6.880;2023-08-17T12:26:18;8.73;;;7.90;;
12059;SDS011;6091;51.432;6.880;2023-08-17T12:28:46;10.43;;;7.68;;
12059;SDS011;6091;51.432;6.880;2023-08-17T12:31:13;8.38;;;7.57;;
12059;SDS011;6091;51.432;6.880;2023-08-17T12:33:47;7.40;;;6.45;;
12059;SDS011;6091;51.432;6.880;2023-08-17T12:36:14;7.07;;;6.38;;
12059;SDS011;6091;51.432;6.880;2023-08-17T12:38:41;6.53;;;5.93;;
12059;SDS011;6091;51.432;6.880;2023-08-17T12:41:11;7.03;;;6.30;;
12059;SDS011;6091;51.432;6.880;2023-08-17T12:43:38;6.88;;;6.28;;
12059;SDS011;6091;51.432;6.880;2023-08-17T12:46:05;6.75;;;6.07;;
12059;SDS011;6091;51.432;6.880;2023-08-17T12:48:32;7.07;;;6.35;;
12059;SDS011;6091;51.432;6.880;2023-08-17T12:51:02;7.88;;;7.07;;
12059;SDS011;6091;51.432;6.880;2023-08-17T12:53:30;6.65;;;6.05;;
12059;SDS011;6091;51.432;6.880;2023-08-17T12:55:57;6.70;;;6.10;;
12059;SDS011;6091;51.432;6.880;2023-08-17T12:58:26;7.20;;;6.50;;
12059;SDS011;6091;51.432;6.880;2023-08-17T13:00:53;6.97;;;6.28;;
12059;SDS011;6091;51.432;6.880;2023-08-17T13:03:23;6.65;;;6.05;;
12059;SDS011;6091;51.432;6.880;2023-08-17T13:05:50;7.18;;;6.35;;
12059;SDS011;6091;51.432;6.880;2023-08-17T13:08:17;7.30;;;6.60;;
12059;SDS011;6091;51.432;6.880;2023-08-17T13:10:44;6.18;;;5.57;;
12059;SDS011;6091;51.432;6.880;2023-08-17T13:13:12;6.78;;;6.10;;
12059;SDS011;6091;51.432;6.880;2023-08-17T13:15:39;6.38;;;5.78;;
12059;SDS011;6091;51.432;6.880;2023-08-17T13:18:07;6.70;;;6.10;;
12059;SDS011;6091;51.432;6.880;2023-08-17T13:20:34;6.53;;;5.90;;
12059;SDS011;6091;51.432;6.880;2023-08-17T13:23:03;6.35;;;5.78;;
12059;SDS011;6091;51.432;6.880;2023-08-17T13:25:30;7.85;;;7.13;;
12059;SDS011;6091;51.432;6.880;2023-08-17T13:27:58;6.93;;;6.32;;
12059;SDS011;6091;51.432;6.880;2023-08-17T13:30:25;6.60;;;6.00;;
12059;SDS011;6091;51.432;6.880;2023-08-17T13:32:52;6.93;;;6.32;;
12059;SDS011;6091;51.432;6.880;2023-08-17T13:35:20;7.50;;;6.80;;
12059;SDS011;6091;51.432;6.880;2023-08-17T13:37:56;7.50;;;6.80;;
12059;SDS011;6091;51.432;6.880;2023-08-17T13:40:24;7.68;;;6.97;;
12059;SDS011;6091;51.432;6.880;2023-08-17T13:42:51;8.70;;;8.00;;
12059;SDS011;6091;51.432;6.880;2023-08-17T13:45:18;7.75;;;7.05;;
12059;SDS011;6091;51.432;6.880;2023-08-17T13:47:45;7.55;;;6.90;;
12059;SDS011;6091;51.432;6.880;2023-08-17T13:50:15;6.85;;;6.25;;
12059;SDS011;6091;51.432;6.880;2023-08-17T13:52:44;7.40;;;6.80;;
12059;SDS011;6091;51.432;6.880;2023-08-17T13:55:15;7.90;;;7.22;;
12059;SDS011;6091;51.432;6.880;2023-08-17T13:57:43;7.72;;;7.03;;
12059;SDS011;6091;51.432;6.880;2023-08-17T14:00:11;8.88;;;8.07;;
12059;SDS011;6091;51.432;6.880;2023-08-17T14:02:39;8.75;;;7.97;;
12059;SDS011;6091;51.432;6.880;2023-08-17T14:05:06;8.45;;;7.80;;
12059;SDS011;6091;51.432;6.880;2023-08-17T14:07:33;8.55;;;7.85;;
12059;SDS011;6091;51.432;6.880;2023-08-17T14:10:00;8.55;;;7.75;;
12059;SDS011;6091;51.432;6.880;2023-08-17T14:12:37;8.18;;;7.40;;
12059;SDS011;6091;51.432;6.880;2023-08-17T14:15:05;10.00;;;9.00;;
12059;SDS011;6091;51.432;6.880;2023-08-17T14:17:35;7.68;;;6.97;;
12059;SDS011;6091;51.432;6.880;2023-08-17T14:20:03;8.60;;;7.80;;
12059;SDS011;6091;51.432;6.880;2023-08-17T14:22:30;8.02;;;7.32;;
12059;SDS011;6091;51.432;6.880;2023-08-17T14:24:58;8.00;;;7.28;;
12059;SDS011;6091;51.432;6.880;2023-08-17T14:27:25;8.45;;;7.75;;
12059;SDS011;6091;51.432;6.880;2023-08-17T14:29:52;8.88;;;8.07;;
12059;SDS011;6091;51.432;6.880;2023-08-17T14:32:19;8.38;;;7.68;;
12059;SDS011;6091;51.432;6.880;2023-08-17T14:34:50;7.75;;;7.07;;
12059;SDS011;6091;51.432;6.880;2023-08-17T14:37:17;7.03;;;6.40;;
12059;SDS011;6091;51.432;6.880;2023-08-17T14:39:49;7.45;;;6.85;;
12059;SDS011;6091;51.432;6.880;2023-08-17T14:42:16;7.05;;;6.53;;
12059;SDS011;6091;51.432;6.880;2023-08-17T14:44:43;6.93;;;6.35;;
12059;SDS011;6091;51.432;6.880;2023-08-17T14:47:10;7.18;;;6.50;;
12059;SDS011;6091;51.432;6.880;2023-08-17T14:49:39;7.05;;;6.45;;
12059;SDS011;6091;51.432;6.880;2023-08-17T14:52:06;7.15;;;6.63;;
12059;SDS011;6091;51.432;6.880;2023-08-17T14:54:34;7.28;;;6.63;;
12059;SDS011;6091;51.432;6.880;2023-08-17T14:57:01;6.95;;;6.40;;
12059;SDS011;6091;51.432;6.880;2023-08-17T14:59:30;6.43;;;5.82;;
12059;SDS011;6091;51.432;6.880;2023-08-17T15:01:57;6.70;;;6.20;;
12059;SDS011;6091;51.432;6.880;2023-08-17T15:04:24;7.10;;;6.50;;
12059;SDS011;6091;51.432;6.880;2023-08-17T15:06:52;6.72;;;6.13;;
12059;SDS011;6091;51.432;6.880;2023-08-17T15:09:19;6.53;;;6.03;;
12059;SDS011;6091;51.432;6.880;2023-08-17T15:11:46;7.43;;;6.82;;
12059;SDS011;6091;51.432;6.880;2023-08-17T15:14:14;6.60;;;6.10;;
12059;SDS011;6091;51.432;6.880;2023-08-17T15:16:41;6.93;;;6.43;;
12059;SDS011;6091;51.432;6.880;2023-08-17T15:19:09;6.10;;;5.60;;
12059;SDS011;6091;51.432;6.880;2023-08-17T15:21:36;7.00;;;6.50;;